Time;durP1;ratioP1;P1;durP2;ratioP2;P2;SDS_P1;SDS_P2;PMS_P1;PMS_P2;Temp;Humidity;BMP_temperature;BMP_pressure;BME280_temperature;BME280_humidity;BME280_pressure;Samples;Min_cycle;Max_cycle;Signal;HPM_P1;HPM_P2
2021/11/04 00:00:23;;;;;;;17.83;3.55;;;16.60;99.90;;;;;;4970571;29;20027;-93
2021/11/04 00:02:49;;;;;;;20.02;4.03;;;16.60;99.90;;;;;;4968622;28;20015;-94
2021/11/04 00:05:16;;;;;;;23.75;5.60;;;16.60;99.90;;;;;;4976012;28;20043;-94
2021/11/04 00:07:42;;;;;;;17.33;4.32;;;16.60;99.90;;;;;;4968829;28;20509;-93
2021/11/04 00:10:09;;;;;;;18.77;3.80;;;16.70;99.90;;;;;;4953368;28;20111;-92
2021/11/04 00:12:36;;;;;;;14.30;4.00;;;16.70;99.90;;;;;;4974739;28;20026;-91
2021/11/04 00:15:03;;;;;;;18.00;3.85;;;16.70;99.90;;;;;;4968527;28;20059;-93
2021/11/04 00:17:29;;;;;;;17.23;3.92;;;16.70;99.90;;;;;;4960332;28;20024;-91
2021/11/04 00:19:55;;;;;;;21.88;6.25;;;16.80;99.90;;;;;;4961263;29;20054;-91
2021/11/04 00:22:21;;;;;;;26.30;5.53;;;16.80;99.90;;;;;;4961249;29;20039;-93
2021/11/04 00:24:46;;;;;;;23.30;3.50;;;16.70;99.90;;;;;;4963499;29;20039;-92
2021/11/04 00:27:12;;;;;;;20.02;4.28;;;16.70;99.90;;;;;;4967773;28;20619;-92
2021/11/04 00:29:38;;;;;;;14.85;3.50;;;16.70;99.90;;;;;;4958025;28;20031;-91
2021/11/04 00:32:05;;;;;;;12.60;3.10;;;16.60;99.90;;;;;;4955899;29;20031;-93
2021/11/04 00:34:31;;;;;;;16.25;3.20;;;16.70;99.90;;;;;;4949032;28;20032;-93
2021/11/04 00:36:57;;;;;;;13.75;4.65;;;16.70;99.90;;;;;;4957621;29;20020;-93
2021/11/04 00:39:23;;;;;;;22.65;3.85;;;16.60;99.90;;;;;;4957568;29;20143;-94
2021/11/04 00:41:49;;;;;;;15.30;3.47;;;16.70;99.90;;;;;;4958879;28;20092;-93
2021/11/04 00:44:14;;;;;;;16.00;3.80;;;16.70;99.90;;;;;;4955278;29;20022;-92
2021/11/04 00:46:41;;;;;;;16.98;3.20;;;16.70;99.90;;;;;;4957546;28;20043;-93
2021/11/04 00:49:06;;;;;;;11.43;3.00;;;16.80;99.90;;;;;;4959705;28;20047;-92
2021/11/04 00:51:32;;;;;;;12.20;3.80;;;16.90;99.90;;;;;;4953676;29;20490;-92
2021/11/04 00:53:58;;;;;;;9.20;3.10;;;17.00;99.90;;;;;;4961793;29;20109;-94
2021/11/04 00:56:24;;;;;;;12.55;3.38;;;17.00;99.90;;;;;;4964094;28;20125;-90
2021/11/04 00:58:50;;;;;;;12.63;2.70;;;17.00;99.90;;;;;;4962117;28;20036;-93
2021/11/04 01:01:17;;;;;;;22.33;3.75;;;17.10;99.90;;;;;;4960526;28;20031;-91
2021/11/04 01:03:44;;;;;;;14.27;2.88;;;17.10;99.90;;;;;;4962387;29;20024;-92
2021/11/04 01:06:09;;;;;;;16.70;2.95;;;17.20;99.90;;;;;;4952039;28;20028;-94
2021/11/04 01:08:35;;;;;;;22.20;3.33;;;17.30;99.90;;;;;;4963230;28;20023;-93
2021/11/04 01:11:01;;;;;;;14.45;3.30;;;17.20;99.90;;;;;;4948250;28;20471;-93
2021/11/04 01:13:27;;;;;;;15.38;3.60;;;17.30;99.90;;;;;;4960207;29;20114;-94
2021/11/04 01:15:52;;;;;;;12.65;2.78;;;17.30;99.90;;;;;;4944181;29;20042;-90
2021/11/04 01:18:18;;;;;;;15.68;2.78;;;17.30;99.90;;;;;;4960591;29;20055;-94
2021/11/04 01:20:44;;;;;;;12.68;2.88;;;17.40;99.90;;;;;;4961977;28;20054;-94
2021/11/04 01:23:09;;;;;;;16.48;2.97;;;17.40;99.90;;;;;;4955652;28;20115;-93
2021/11/04 01:25:35;;;;;;;13.68;3.10;;;17.40;99.90;;;;;;4943831;29;20262;-93
2021/11/04 01:28:03;;;;;;;10.27;2.33;;;17.40;99.90;;;;;;4955178;29;20118;-92
2021/11/04 01:30:29;;;;;;;16.50;2.50;;;17.50;99.90;;;;;;4959965;28;20042;-93
2021/11/04 01:32:55;;;;;;;8.55;2.30;;;17.50;99.90;;;;;;4960151;28;20113;-91
2021/11/04 01:35:21;;;;;;;8.52;1.90;;;17.40;99.90;;;;;;4959341;28;20032;-91
2021/11/04 01:37:46;;;;;;;12.13;2.22;;;17.40;99.90;;;;;;4962098;29;20090;-93
2021/11/04 01:40:12;;;;;;;11.50;2.10;;;17.30;99.90;;;;;;4961858;28;20510;-92
2021/11/04 01:42:38;;;;;;;13.10;3.13;;;17.10;99.90;;;;;;4959402;28;20078;-92
2021/11/04 01:45:04;;;;;;;11.05;2.30;;;17.00;99.90;;;;;;4961918;28;20123;-93
2021/11/04 01:47:29;;;;;;;11.50;2.10;;;17.00;99.90;;;;;;4954485;28;20027;-91
2021/11/04 01:49:56;;;;;;;15.23;2.60;;;17.00;99.90;;;;;;4962277;29;20023;-92
2021/11/04 01:52:22;;;;;;;10.68;2.75;;;17.10;99.90;;;;;;4951754;29;20023;-94
2021/11/04 01:54:48;;;;;;;13.73;2.53;;;17.00;99.90;;;;;;4945359;29;20015;-92
2021/11/04 01:57:14;;;;;;;15.07;2.63;;;17.10;99.90;;;;;;4951734;29;20103;-93
2021/11/04 01:59:39;;;;;;;16.92;3.58;;;17.10;99.90;;;;;;4953083;29;20399;-93
2021/11/04 02:02:16;;;;;;;16.67;3.08;;;17.10;99.90;;;;;;4960975;28;20031;-92
2021/11/04 02:04:55;;;;;;;15.95;2.92;;;17.10;99.90;;;;;;4960497;28;20031;-92
2021/11/04 02:07:43;;;;;;;18.20;2.65;;;17.00;99.90;;;;;;4950394;28;20031;-94
2021/11/04 02:10:24;;;;;;;13.57;2.65;;;16.90;99.90;;;;;;4940192;29;20055;-92
2021/11/04 02:13:07;;;;;;;11.70;1.85;;;16.90;99.90;;;;;;4938614;29;20122;-93
2021/11/04 02:15:40;;;;;;;8.77;2.30;;;16.90;99.90;;;;;;4939392;29;20115;-92
2021/11/04 02:18:08;;;;;;;;;;;16.80;99.90;;;;;;4955206;29;20030;-93
2021/11/04 02:20:39;;;;;;;15.35;2.55;;;16.80;99.90;;;;;;4953660;29;19914;-89
2021/11/04 02:23:12;;;;;;;14.85;2.60;;;16.90;99.90;;;;;;4959277;29;20090;-93
2021/11/04 02:25:39;;;;;;;11.65;2.10;;;16.90;99.90;;;;;;4959609;28;20035;-92
2021/11/04 02:28:08;;;;;;;10.05;1.95;;;16.90;99.90;;;;;;4959263;28;20028;-93
2021/11/04 02:30:35;;;;;;;8.32;2.05;;;16.90;99.90;;;;;;4961226;28;20029;-93
2021/11/04 02:33:02;;;;;;;8.60;1.67;;;16.90;99.90;;;;;;4959852;29;20031;-94
2021/11/04 02:35:28;;;;;;;12.20;2.33;;;16.90;99.90;;;;;;4961865;28;20110;-91
2021/11/04 02:37:55;;;;;;;13.90;1.55;;;16.90;99.90;;;;;;4960050;28;20058;-95
2021/11/04 02:40:22;;;;;;;10.27;1.83;;;17.00;99.90;;;;;;4958140;28;20035;-93
2021/11/04 02:42:50;;;;;;;10.13;2.25;;;16.90;99.90;;;;;;4959900;28;20087;-92
2021/11/04 02:45:19;;;;;;;11.40;1.80;;;16.90;99.90;;;;;;4956884;28;20043;-93
2021/11/04 02:47:45;;;;;;;10.90;2.00;;;17.00;99.90;;;;;;4951536;29;20031;-94
2021/11/04 02:50:11;;;;;;;12.48;2.00;;;16.90;99.90;;;;;;4955622;29;20031;-92
2021/11/04 02:52:37;;;;;;;14.13;2.30;;;17.00;99.90;;;;;;4950107;29;20030;-93
2021/11/04 02:55:05;;;;;;;13.02;2.17;;;16.90;99.90;;;;;;4958029;28;20040;-93
2021/11/04 02:57:31;;;;;;;7.50;1.73;;;17.00;99.90;;;;;;5072498;23;20051;-91
2021/11/04 02:59:58;;;;;;;9.88;1.75;;;17.00;99.90;;;;;;4998052;28;20018;-92
2021/11/04 03:02:23;;;;;;;11.07;2.17;;;17.00;99.90;;;;;;4986056;28;20031;-92
2021/11/04 03:04:50;;;;;;;7.55;1.90;;;17.00;99.90;;;;;;4989873;28;20035;-94
2021/11/04 03:07:15;;;;;;;10.05;1.88;;;17.10;99.90;;;;;;4997091;28;20089;-90
2021/11/04 03:09:42;;;;;;;10.38;1.65;;;17.00;99.90;;;;;;5017292;28;20476;-91
2021/11/04 03:12:08;;;;;;;10.75;1.75;;;17.10;99.90;;;;;;5016117;28;20477;-91
2021/11/04 03:14:34;;;;;;;14.82;1.75;;;17.10;99.90;;;;;;4998978;28;20027;-89
2021/11/04 03:17:03;;;;;;;11.32;1.40;;;17.20;99.90;;;;;;4983378;28;20030;-91
2021/11/04 03:19:30;;;;;;;7.65;1.80;;;17.20;99.90;;;;;;4985496;28;20027;-93
2021/11/04 03:21:57;;;;;;;8.35;1.50;;;17.20;99.90;;;;;;4990855;28;20038;-88
2021/11/04 03:24:25;;;;;;;7.43;1.60;;;17.20;99.90;;;;;;4979182;28;20023;-90
2021/11/04 03:27:06;;;;;;;9.35;1.35;;;17.20;99.90;;;;;;4988272;28;20042;-91
2021/11/04 03:29:36;;;;;;;8.90;1.60;;;17.20;99.90;;;;;;4977741;28;20101;-91
2021/11/04 03:32:04;;;;;;;8.20;1.80;;;17.20;99.90;;;;;;4976780;28;20121;-93
2021/11/04 03:34:32;;;;;;;8.77;1.73;;;17.10;99.90;;;;;;4999664;28;20011;-92
2021/11/04 03:36:59;;;;;;;8.10;1.80;;;17.10;99.90;;;;;;4996242;28;20038;-92
2021/11/04 03:39:25;;;;;;;14.93;2.35;;;17.10;99.90;;;;;;4961838;28;20030;-92
2021/11/04 03:41:55;;;;;;;8.00;1.65;;;17.10;99.90;;;;;;4995137;28;20027;-93
2021/11/04 03:44:25;;;;;;;10.52;1.60;;;17.10;99.90;;;;;;4996957;28;20025;-93
2021/11/04 03:46:53;;;;;;;7.53;1.63;;;17.00;99.90;;;;;;4986377;28;20043;-93
2021/11/04 03:49:20;;;;;;;11.45;1.60;;;16.90;99.90;;;;;;4998753;28;20050;-90
2021/11/04 03:51:49;;;;;;;13.25;1.88;;;16.90;99.90;;;;;;4996370;28;20026;-90
2021/11/04 03:54:17;;;;;;;12.45;2.28;;;16.70;99.90;;;;;;4996816;28;20029;-91
2021/11/04 03:56:43;;;;;;;12.00;1.92;;;16.30;99.90;;;;;;4999298;28;20541;-90
2021/11/04 03:59:09;;;;;;;9.63;2.22;;;15.90;99.90;;;;;;4999346;28;20129;-90
2021/11/04 04:01:35;;;;;;;16.95;2.63;;;15.50;99.90;;;;;;4997870;28;20074;-89
2021/11/04 04:04:03;;;;;;;13.82;2.10;;;15.30;99.90;;;;;;4984493;28;20034;-90
2021/11/04 04:06:28;;;;;;;21.00;2.90;;;15.20;99.90;;;;;;4982722;28;20066;-92
2021/11/04 04:08:55;;;;;;;14.32;2.30;;;15.20;99.90;;;;;;4998464;28;20028;-90
2021/11/04 04:11:23;;;;;;;12.73;1.88;;;15.20;99.90;;;;;;4997414;28;20057;-91
2021/11/04 04:13:50;;;;;;;10.60;1.90;;;15.20;99.90;;;;;;5000127;28;20018;-92
2021/11/04 04:16:16;;;;;;;18.83;2.10;;;15.20;99.90;;;;;;4999034;28;20026;-92
2021/11/04 04:18:42;;;;;;;3.38;0.95;;;15.10;99.90;;;;;;5003207;28;20022;-92
2021/11/04 04:21:08;;;;;;;6.93;1.42;;;15.10;99.90;;;;;;5001060;28;20049;-93
2021/11/04 04:23:34;;;;;;;9.27;1.45;;;15.10;99.90;;;;;;5001279;28;20026;-93
2021/11/04 04:25:59;;;;;;;6.60;1.10;;;15.10;99.90;;;;;;5004010;28;20608;-93
2021/11/04 04:28:25;;;;;;;6.55;1.05;;;15.00;99.90;;;;;;4980030;28;20034;-91
2021/11/04 04:30:51;;;;;;;5.45;1.00;;;15.00;99.90;;;;;;4981263;28;20481;-93
2021/11/04 04:33:16;;;;;;;4.00;0.85;;;14.90;99.90;;;;;;4983974;28;20054;-91
2021/11/04 04:35:42;;;;;;;5.35;1.00;;;14.90;99.90;;;;;;4989996;28;20026;-91
2021/11/04 04:38:08;;;;;;;4.97;0.77;;;14.80;99.90;;;;;;4997135;28;20022;-92
2021/11/04 04:40:34;;;;;;;7.07;1.10;;;14.80;99.90;;;;;;5003462;28;20041;-92
2021/11/04 04:42:59;;;;;;;10.43;1.65;;;14.70;99.90;;;;;;5001819;28;20033;-92
2021/11/04 04:45:25;;;;;;;7.22;1.70;;;14.60;99.90;;;;;;5001240;28;20035;-91
2021/11/04 04:47:51;;;;;;;17.33;1.50;;;14.50;99.90;;;;;;5004052;28;20053;-93
2021/11/04 04:50:16;;;;;;;12.20;1.67;;;14.50;99.90;;;;;;5001657;28;20404;-92
2021/11/04 04:52:42;;;;;;;10.38;1.10;;;14.50;99.90;;;;;;5001944;28;20026;-94
2021/11/04 04:55:08;;;;;;;7.10;1.10;;;14.60;99.90;;;;;;4985031;28;20027;-95
2021/11/04 04:57:34;;;;;;;9.77;1.42;;;14.60;99.90;;;;;;4988423;28;20123;-94
2021/11/04 05:00:00;;;;;;;11.23;1.63;;;14.50;99.90;;;;;;4987762;28;20031;-95
2021/11/04 05:02:27;;;;;;;12.02;1.50;;;14.50;99.90;;;;;;4999547;28;20026;-94
2021/11/04 05:04:54;;;;;;;7.35;1.55;;;14.60;99.90;;;;;;5008952;28;20126;-94
2021/11/04 05:07:24;;;;;;;9.68;1.45;;;14.60;99.90;;;;;;4977699;28;20453;-92
2021/11/04 05:09:49;;;;;;;8.32;1.40;;;14.50;99.90;;;;;;4992350;28;20026;-92
2021/11/04 05:12:15;;;;;;;13.68;1.80;;;14.50;99.90;;;;;;5006375;28;20121;-92
2021/11/04 05:14:41;;;;;;;16.98;1.88;;;14.60;99.90;;;;;;5005828;28;20031;-89
2021/11/04 05:17:06;;;;;;;15.35;1.77;;;14.60;99.90;;;;;;4998153;28;20031;-91
2021/11/04 05:19:32;;;;;;;11.38;1.77;;;14.60;99.90;;;;;;4998646;28;20038;-93
2021/11/04 05:21:58;;;;;;;8.68;1.40;;;14.60;99.90;;;;;;4990035;28;20062;-92
2021/11/04 05:24:24;;;;;;;10.10;1.40;;;14.70;99.90;;;;;;4987233;28;20023;-93
2021/11/04 05:26:50;;;;;;;7.47;1.98;;;14.70;99.90;;;;;;5008371;28;20040;-94
2021/11/04 05:34:19;;;;;;;13.43;1.38;;;14.70;99.90;;;;;;4965936;28;20052;-93
2021/11/04 05:36:45;;;;;;;8.05;1.30;;;14.60;99.90;;;;;;4982880;28;20380;-86
2021/11/04 05:39:10;;;;;;;17.58;1.65;;;14.60;99.90;;;;;;4958286;28;20039;-87
2021/11/04 05:41:36;;;;;;;7.95;1.55;;;14.70;99.90;;;;;;4958564;29;20031;-87
2021/11/04 05:44:02;;;;;;;7.18;1.30;;;14.60;99.90;;;;;;4957520;29;20027;-85
2021/11/04 05:46:27;;;;;;;10.98;1.75;;;14.60;99.90;;;;;;4956607;29;20503;-86
2021/11/04 05:48:53;;;;;;;6.75;1.40;;;14.60;99.90;;;;;;4956195;29;20023;-90
2021/11/04 05:51:19;;;;;;;11.00;1.00;;;14.50;99.90;;;;;;4960326;29;20463;-90
2021/11/04 05:53:45;;;;;;;7.70;1.30;;;14.50;99.90;;;;;;4963582;29;20054;-92
2021/11/04 05:56:25;;;;;;;10.38;1.65;;;14.50;99.90;;;;;;4969726;28;20027;-92
2021/11/04 05:58:52;;;;;;;8.23;1.38;;;14.50;99.90;;;;;;4966950;28;20007;-92
2021/11/04 06:03:46;;;;;;;6.63;1.25;;;14.50;99.90;;;;;;4979540;28;20110;-90
2021/11/04 06:06:11;;;;;;;10.27;1.50;;;14.50;99.90;;;;;;4984662;28;20038;-92
2021/11/04 06:08:37;;;;;;;10.90;1.60;;;14.60;99.90;;;;;;4969472;28;20027;-89
2021/11/04 06:11:03;;;;;;;5.88;1.33;;;14.50;99.90;;;;;;4969711;28;20050;-92
2021/11/04 06:13:29;;;;;;;9.38;1.23;;;14.50;99.90;;;;;;4967425;28;20082;-84
2021/11/04 06:15:55;;;;;;;10.32;1.48;;;14.50;99.90;;;;;;4973882;28;20034;-87
2021/11/04 06:18:21;;;;;;;7.28;1.27;;;14.50;99.90;;;;;;4977939;28;20501;-89
2021/11/04 06:20:46;;;;;;;4.25;1.23;;;14.50;99.90;;;;;;4974434;28;20033;-84
2021/11/04 06:23:12;;;;;;;6.50;1.38;;;14.50;99.90;;;;;;4971673;28;20046;-91
2021/11/04 06:25:38;;;;;;;5.78;1.42;;;14.40;99.90;;;;;;4977887;28;20043;-85
2021/11/04 06:28:04;;;;;;;5.47;1.40;;;14.40;99.90;;;;;;4998711;28;20027;-93
2021/11/04 06:30:29;;;;;;;5.60;1.52;;;14.40;99.90;;;;;;4984833;28;20033;-91
2021/11/04 06:32:55;;;;;;;7.55;1.75;;;14.50;99.90;;;;;;4983389;28;20536;-92
2021/11/04 06:35:21;;;;;;;6.22;1.45;;;14.60;99.90;;;;;;4979627;28;20062;-86
2021/11/04 06:37:47;;;;;;;9.55;1.48;;;14.60;99.90;;;;;;4979140;28;20094;-89
2021/11/04 06:40:13;;;;;;;10.82;1.90;;;14.70;99.90;;;;;;4976924;28;20062;-88
2021/11/04 06:42:39;;;;;;;7.75;1.90;;;14.70;99.90;;;;;;4982413;28;20027;-90
2021/11/04 06:45:05;;;;;;;9.57;1.52;;;14.80;99.90;;;;;;4977568;28;20105;-83
2021/11/04 06:47:41;;;;;;;10.13;1.73;;;14.70;99.90;;;;;;4983842;28;20054;-92
2021/11/04 06:50:10;;;;;;;7.30;1.40;;;14.70;99.90;;;;;;4985699;28;20018;-89
2021/11/04 06:52:43;;;;;;;12.27;1.65;;;14.70;99.90;;;;;;4966263;28;20099;-92
2021/11/04 06:55:12;;;;;;;7.95;1.80;;;14.60;99.90;;;;;;4989890;28;20046;-88
2021/11/04 06:57:42;;;;;;;8.13;1.50;;;14.60;99.90;;;;;;4967901;28;20035;-91
2021/11/04 07:00:09;;;;;;;11.80;1.42;;;14.50;99.90;;;;;;4978155;28;20144;-84
2021/11/04 07:02:41;;;;;;;7.95;1.48;;;14.50;99.90;;;;;;4981892;28;20051;-84
2021/11/04 07:05:08;;;;;;;8.68;1.63;;;14.50;99.90;;;;;;4969556;28;20117;-83
2021/11/04 07:07:49;;;;;;;10.45;1.50;;;14.50;99.90;;;;;;4973423;28;20033;-86
2021/11/04 07:10:18;;;;;;;6.72;1.60;;;14.50;99.90;;;;;;4983667;28;20042;-92
2021/11/04 07:12:47;;;;;;;14.93;1.58;;;14.50;99.90;;;;;;4971269;28;20038;-83
2021/11/04 07:15:15;;;;;;;14.32;1.83;;;14.50;99.90;;;;;;4972074;28;20123;-82
2021/11/04 07:17:42;;;;;;;10.13;1.90;;;14.50;99.90;;;;;;4971865;28;20039;-83
2021/11/04 07:20:11;;;;;;;9.93;1.48;;;14.40;99.90;;;;;;4976086;28;20023;-83
2021/11/04 07:22:51;;;;;;;6.45;1.55;;;14.40;99.90;;;;;;4973221;28;20070;-82
2021/11/04 07:25:21;;;;;;;7.85;1.50;;;14.40;99.90;;;;;;4973449;28;20485;-83
2021/11/04 07:28:05;;;;;;;9.25;1.75;;;14.40;99.90;;;;;;4975072;28;20030;-82
2021/11/04 07:30:32;;;;;;;6.22;1.60;;;14.40;99.90;;;;;;4978463;28;20053;-81
2021/11/04 07:32:59;;;;;;;10.85;1.80;;;14.40;99.90;;;;;;4975780;28;20065;-82
2021/11/04 07:35:37;;;;;;;8.13;1.83;;;14.40;99.90;;;;;;4976856;28;20023;-82
2021/11/04 07:38:06;;;;;;;6.93;1.73;;;14.50;99.90;;;;;;4977507;28;20374;-81
2021/11/04 07:40:32;;;;;;;9.82;1.50;;;14.40;99.90;;;;;;4976311;28;20374;-82
2021/11/04 07:42:59;;;;;;;4.90;1.30;;;14.50;99.90;;;;;;4977364;28;20042;-82
2021/11/04 07:45:26;;;;;;;15.15;2.03;;;14.60;99.90;;;;;;4975672;28;20035;-81
2021/11/04 07:47:53;;;;;;;12.60;1.83;;;14.70;99.90;;;;;;4977015;28;20110;-84
2021/11/04 07:50:22;;;;;;;8.23;2.00;;;14.70;99.90;;;;;;4975174;28;20433;-81
2021/11/04 07:52:49;;;;;;;16.88;2.78;;;14.80;99.90;;;;;;4975877;28;20027;-81
2021/11/04 07:55:16;;;;;;;17.08;2.67;;;14.90;99.90;;;;;;4975888;28;20027;-83
2021/11/04 07:57:42;;;;;;;17.85;4.13;;;14.90;99.90;;;;;;4975261;28;20042;-81
2021/11/04 08:00:14;;;;;;;20.70;4.80;;;15.00;99.90;;;;;;4974596;28;20035;-83
2021/11/04 08:02:40;;;;;;;14.48;2.97;;;15.10;99.90;;;;;;4974887;28;20125;-81
2021/11/04 08:05:07;;;;;;;10.00;2.22;;;15.10;99.90;;;;;;4973012;28;20031;-82
2021/11/04 08:07:35;;;;;;;11.18;1.95;;;15.10;99.90;;;;;;4973312;28;20030;-80
2021/11/04 08:10:02;;;;;;;8.95;1.80;;;15.30;99.90;;;;;;4971685;28;20549;-80
2021/11/04 08:12:28;;;;;;;9.27;1.88;;;15.30;99.90;;;;;;4972965;28;20177;-81
2021/11/04 08:14:54;;;;;;;7.47;1.98;;;15.40;99.90;;;;;;4972485;28;20054;-81
2021/11/04 08:17:20;;;;;;;7.47;1.50;;;15.40;99.90;;;;;;4972486;28;20027;-83
2021/11/04 08:19:45;;;;;;;8.07;1.80;;;15.50;99.90;;;;;;4971646;28;20078;-81
2021/11/04 08:22:11;;;;;;;11.93;1.80;;;15.60;99.90;;;;;;4975792;28;20574;-83
2021/11/04 08:24:37;;;;;;;7.05;1.60;;;15.70;99.90;;;;;;4977396;28;20110;-83
2021/11/04 08:27:03;;;;;;;9.55;1.75;;;15.70;99.90;;;;;;4952459;28;20102;-83
2021/11/04 08:29:28;;;;;;;10.65;1.77;;;15.80;99.90;;;;;;4965417;28;20058;-82
2021/11/04 08:31:54;;;;;;;13.02;2.15;;;15.90;99.90;;;;;;4967477;28;20660;-82
2021/11/04 08:34:21;;;;;;;9.95;1.75;;;16.00;99.90;;;;;;4971889;28;20559;-84
2021/11/04 08:36:47;;;;;;;8.63;1.90;;;16.10;99.90;;;;;;4975848;28;20037;-82
2021/11/04 08:39:14;;;;;;;6.90;1.70;;;16.20;99.90;;;;;;4972550;28;20026;-82
2021/11/04 08:41:44;;;;;;;10.60;1.88;;;16.30;99.90;;;;;;4973962;28;20102;-83
2021/11/04 08:44:09;;;;;;;6.93;1.38;;;16.40;99.90;;;;;;4974006;28;20027;-82
2021/11/04 08:46:35;;;;;;;14.18;1.65;;;16.60;99.90;;;;;;4974486;28;20038;-83
2021/11/04 08:49:05;;;;;;;7.05;1.63;;;16.60;99.90;;;;;;4971839;28;20027;-83
2021/11/04 08:51:31;;;;;;;12.70;1.45;;;16.70;99.90;;;;;;4971008;28;20045;-82
2021/11/04 08:53:59;;;;;;;7.55;1.58;;;16.80;99.90;;;;;;4972040;28;20117;-82
2021/11/04 08:56:25;;;;;;;11.32;2.30;;;16.90;99.90;;;;;;4970472;28;20031;-81
2021/11/04 08:58:51;;;;;;;8.02;1.55;;;16.90;99.90;;;;;;4973155;28;20061;-82
2021/11/04 09:01:17;;;;;;;6.07;1.40;;;17.00;99.90;;;;;;4972133;28;20458;-82
2021/11/04 09:03:42;;;;;;;12.77;1.80;;;17.10;99.90;;;;;;4972736;28;20089;-81
2021/11/04 09:06:09;;;;;;;8.57;1.63;;;17.10;99.90;;;;;;4972241;28;20074;-81
2021/11/04 09:08:36;;;;;;;17.02;2.08;;;17.20;99.90;;;;;;4969556;28;20062;-82
2021/11/04 09:11:02;;;;;;;14.65;2.60;;;17.20;99.90;;;;;;4973363;28;20030;-82
2021/11/04 09:13:27;;;;;;;10.77;1.80;;;17.10;99.90;;;;;;4971525;28;20458;-83
2021/11/04 09:15:53;;;;;;;5.40;1.40;;;17.20;99.90;;;;;;4972146;28;20486;-82
2021/11/04 09:18:21;;;;;;;7.35;1.30;;;17.30;99.90;;;;;;4974370;28;20470;-82
2021/11/04 09:20:47;;;;;;;7.93;1.60;;;17.30;99.90;;;;;;4970953;28;20038;-83
2021/11/04 09:23:13;;;;;;;5.88;1.63;;;17.30;98.00;;;;;;4972003;28;20023;-85
2021/11/04 09:25:39;;;;;;;6.47;1.45;;;17.20;98.10;;;;;;4971331;28;20067;-82
2021/11/04 09:28:05;;;;;;;12.73;1.95;;;17.10;97.00;;;;;;4969834;28;20066;-81
2021/11/04 09:30:31;;;;;;;11.40;2.53;;;17.00;98.10;;;;;;4971934;28;20038;-81
2021/11/04 09:32:57;;;;;;;9.27;1.45;;;16.90;98.50;;;;;;4971588;28;20722;-81
2021/11/04 09:35:24;;;;;;;8.55;1.77;;;17.00;98.30;;;;;;4971855;28;20598;-82
2021/11/04 09:37:51;;;;;;;8.50;1.58;;;17.00;97.10;;;;;;4971603;28;20493;-82
2021/11/04 09:40:18;;;;;;;15.77;1.77;;;17.20;97.80;;;;;;4975253;28;20038;-85
2021/11/04 09:42:49;;;;;;;6.53;1.25;;;17.20;97.40;;;;;;4973691;28;20027;-83
2021/11/04 09:45:15;;;;;;;18.77;2.03;;;17.30;96.00;;;;;;4971115;28;20118;-83
2021/11/04 09:47:41;;;;;;;10.00;1.60;;;17.40;96.30;;;;;;4971360;28;20493;-81
2021/11/04 09:50:12;;;;;;;6.55;1.35;;;17.30;95.10;;;;;;4969601;28;20042;-82
2021/11/04 09:52:40;;;;;;;8.43;2.17;;;17.40;95.40;;;;;;4970874;28;20605;-84
2021/11/04 09:55:17;;;;;;;5.80;1.70;;;17.40;95.10;;;;;;4972349;28;20015;-82
2021/11/04 09:57:44;;;;;;;10.38;1.80;;;17.50;96.40;;;;;;4970177;28;20500;-84
2021/11/04 10:00:11;;;;;;;8.18;1.55;;;17.50;94.70;;;;;;4971533;28;20030;-81
2021/11/04 10:02:39;;;;;;;13.93;1.77;;;17.60;94.90;;;;;;4970535;28;20057;-82
2021/11/04 10:05:07;;;;;;;5.65;1.70;;;17.60;95.00;;;;;;4969620;28;20038;-81
2021/11/04 10:07:49;;;;;;;5.88;1.70;;;17.70;95.80;;;;;;4970201;28;20042;-82
2021/11/04 10:10:18;;;;;;;14.88;2.20;;;17.90;95.60;;;;;;4973069;28;20019;-81
2021/11/04 10:13:05;;;;;;;11.27;2.38;;;17.90;95.00;;;;;;4969287;28;20177;-83
2021/11/04 10:15:33;;;;;;;11.88;2.17;;;17.80;93.90;;;;;;4969512;28;20038;-83
2021/11/04 10:18:09;;;;;;;9.40;1.67;;;17.80;93.50;;;;;;4970672;28;20026;-83
2021/11/04 10:20:35;;;;;;;11.95;1.85;;;17.80;93.80;;;;;;4963896;28;20474;-84
2021/11/04 10:23:13;;;;;;;13.90;2.15;;;17.90;94.60;;;;;;4969549;28;20093;-83
2021/11/04 10:25:41;;;;;;;9.95;2.47;;;18.00;94.90;;;;;;4968261;28;20077;-83
2021/11/04 10:28:21;;;;;;;9.23;1.90;;;18.10;95.60;;;;;;4968481;28;20080;-82
2021/11/04 10:30:48;;;;;;;5.05;1.80;;;18.20;94.30;;;;;;4950876;29;20027;-82
2021/11/04 10:33:20;;;;;;;9.13;2.22;;;18.10;92.70;;;;;;4969659;28;20026;-83
2021/11/04 10:36:10;;;;;;;14.82;1.98;;;17.90;94.00;;;;;;4970001;28;20102;-81
2021/11/04 10:38:46;;;;;;;16.08;2.33;;;18.00;92.90;;;;;;4962356;28;20030;-83
2021/11/04 10:41:20;;;;;;;11.50;2.25;;;17.80;93.70;;;;;;4970811;28;20031;-80
2021/11/04 10:43:48;;;;;;;12.73;1.58;;;17.70;92.40;;;;;;4962797;28;20062;-83
2021/11/04 10:46:16;;;;;;;13.65;1.75;;;17.50;91.50;;;;;;4952803;28;20039;-81
2021/11/04 10:48:44;;;;;;;15.27;2.20;;;17.50;92.30;;;;;;4970922;28;20628;-83
2021/11/04 10:51:19;;;;;;;7.43;1.60;;;17.40;92.10;;;;;;4968653;28;20018;-82
2021/11/04 10:53:57;;;;;;;7.55;1.65;;;17.50;91.80;;;;;;4969004;28;20505;-83
2021/11/04 10:56:23;;;;;;;22.75;2.25;;;17.50;93.30;;;;;;4968466;28;20039;-82
2021/11/04 10:58:56;;;;;;;15.63;1.95;;;17.60;92.70;;;;;;4967391;28;20027;-84
2021/11/04 11:01:37;;;;;;;14.25;2.10;;;17.70;92.60;;;;;;4970102;28;20026;-81
2021/11/04 11:04:24;;;;;;;7.00;1.60;;;17.60;91.40;;;;;;4969228;28;20041;-81
2021/11/04 11:06:53;;;;;;;11.02;1.98;;;17.50;91.50;;;;;;4973742;28;20043;-81
2021/11/04 11:09:25;;;;;;;6.40;1.58;;;17.60;91.90;;;;;;4973360;28;20039;-82
2021/11/04 11:11:54;;;;;;;14.13;1.98;;;17.80;91.50;;;;;;4974729;28;20062;-81
2021/11/04 11:14:22;;;;;;;10.23;2.08;;;17.90;89.40;;;;;;4972259;28;20031;-83
2021/11/04 11:16:49;;;;;;;8.05;1.98;;;17.90;90.50;;;;;;4972941;28;20027;-83
2021/11/04 11:19:39;;;;;;;10.35;1.80;;;17.90;90.90;;;;;;4973382;28;20042;-82
2021/11/04 11:22:06;;;;;;;8.38;1.85;;;17.80;89.60;;;;;;4974124;28;20466;-86
2021/11/04 11:24:42;;;;;;;10.25;2.25;;;18.00;91.10;;;;;;4964836;28;20023;-83
2021/11/04 11:27:10;;;;;;;8.88;1.73;;;18.30;90.80;;;;;;4974292;28;20125;-84
2021/11/04 11:29:39;;;;;;;10.82;2.45;;;18.30;90.50;;;;;;4973537;28;20018;-82
2021/11/04 11:32:16;;;;;;;9.32;1.85;;;18.30;91.20;;;;;;4973571;28;20035;-82
2021/11/04 11:34:42;;;;;;;19.45;2.05;;;18.30;90.00;;;;;;4972861;28;20023;-83
2021/11/04 11:37:15;;;;;;;8.05;1.75;;;18.30;90.70;;;;;;4976405;28;20517;-84
2021/11/04 11:39:51;;;;;;;11.32;1.95;;;18.40;90.40;;;;;;4977087;28;20031;-82
2021/11/04 11:42:24;;;;;;;12.50;2.30;;;18.30;88.60;;;;;;4976193;28;20023;-82
2021/11/04 11:45:01;;;;;;;11.60;2.20;;;18.30;88.10;;;;;;4977760;28;20386;-83
2021/11/04 11:47:33;;;;;;;10.18;1.60;;;18.10;90.10;;;;;;4976839;28;20035;-83
2021/11/04 11:50:22;;;;;;;12.05;2.17;;;18.20;90.60;;;;;;4962455;28;20023;-81
2021/11/04 11:52:51;;;;;;;9.20;1.77;;;18.30;89.40;;;;;;4966573;28;20031;-83
2021/11/04 11:55:37;;;;;;;9.43;1.63;;;18.20;87.40;;;;;;4973865;28;20023;-81
2021/11/04 11:58:25;;;;;;;10.55;2.60;;;18.00;89.30;;;;;;4973483;28;20657;-84
2021/11/04 12:01:07;;;;;;;9.13;2.20;;;18.30;90.40;;;;;;4956394;28;20031;-84
2021/11/04 12:03:36;;;;;;;8.30;2.05;;;18.60;90.40;;;;;;4968242;28;20141;-82
2021/11/04 12:06:25;;;;;;;7.50;1.80;;;18.80;87.50;;;;;;4975352;28;20070;-82
2021/11/04 12:09:03;;;;;;;11.55;2.20;;;20.40;82.50;;;;;;4974694;28;20038;-87
2021/11/04 12:11:37;;;;;;;7.68;1.90;;;21.90;80.30;;;;;;4975667;28;20030;-82
2021/11/04 12:14:15;;;;;;;7.95;1.52;;;23.40;75.70;;;;;;4968441;28;20397;-83
2021/11/04 12:17:08;;;;;;;9.48;1.70;;;22.40;72.90;;;;;;4974880;28;20110;-85
2021/11/04 12:19:39;;;;;;;9.45;2.00;;;21.50;76.50;;;;;;4965588;28;20057;-83
2021/11/04 12:22:18;;;;;;;8.65;1.65;;;21.50;76.70;;;;;;4974898;28;20045;-83
2021/11/04 12:24:53;;;;;;;13.30;1.83;;;22.30;75.00;;;;;;4972050;28;20077;-84
2021/11/04 12:27:21;;;;;;;8.98;2.05;;;24.00;71.80;;;;;;4976593;28;20165;-85
2021/11/04 12:29:48;;;;;;;11.80;2.20;;;24.30;70.00;;;;;;4979315;28;20019;-83
2021/11/04 12:32:22;;;;;;;8.75;1.92;;;24.80;68.80;;;;;;4974590;28;20027;-83
2021/11/04 12:34:57;;;;;;;8.05;1.83;;;25.90;66.50;;;;;;4989212;28;20038;-82
2021/11/04 12:37:27;;;;;;;6.00;2.03;;;26.00;63.80;;;;;;4998892;28;20027;-85
2021/11/04 12:39:55;;;;;;;7.82;1.55;;;25.90;62.90;;;;;;4977892;28;20007;-87
2021/11/04 12:42:21;;;;;;;5.18;1.60;;;25.90;61.20;;;;;;4978234;28;20118;-82
2021/11/04 12:44:47;;;;;;;10.95;1.67;;;26.20;59.00;;;;;;4981844;28;20382;-82
2021/11/04 12:47:40;;;;;;;3.95;1.60;;;26.20;59.00;;;;;;4979589;28;20045;-85
2021/11/04 12:50:06;;;;;;;7.18;1.80;;;26.70;59.40;;;;;;4974082;28;20042;-87
2021/11/04 12:52:32;;;;;;;8.30;1.90;;;27.60;59.00;;;;;;4981276;28;20021;-84
2021/11/04 12:54:58;;;;;;;12.13;2.40;;;27.20;58.00;;;;;;4981656;28;20030;-89